Lady Kimon — WDH3910 — position and weather

sailwx.info

Track history (hours):
 
Tides and Currents Weather Stations Pressure Air Temp Water Temp Dewpoint Dewpoint Depression Visibility Wind Speed Wind Dir Waves Ship Positions

Lady Kimon

Owner: Pekhazis, Fadoul, Miami, FL. More information available from US FCC via Universal Licensing System and Coast Guard Vessel Documentation Center.

Last reported at 2017-Aug-19 13:28 UTC. Time now 2017-Sep-21 07:11 UTC.
Position N 34°40' E 033°04'.
Warning: this ship's position is 32 days out of date.

Length 17 m.

Type: Pleasure craft. MMSI: 367612190.

Date/timePositionNaut miles runAvg speedWind from/ knotsBaromVisibWave heightAir tempDewpointWater temp
2017-Aug-19 13:28N 34°40' E 033°04'4 7.6
2017-Aug-19 13:00N 34°38' E 033°01'0 0.0
2017-Aug-19 06:54N 34°38' E 033°01'3 7.1
2017-Aug-19 06:30N 34°39' E 033°04'1 0.0
2017-Aug-17 09:47N 34°40' E 033°04'2 8.9
2017-Aug-17 09:30N 34°38' E 033°02'1 0.6
2017-Aug-17 07:39N 34°38' E 033°01'1 5.1
2017-Aug-17 07:30N 34°38' E 033°02'4 7.9
2017-Aug-17 07:00N 34°40' E 033°06'0 0.0
2017-Aug-16 14:21N 34°40' E 033°05'3 8.1
2017-Aug-16 14:00N 34°39' E 033°03'2 0.6
2017-Aug-16 10:51N 34°38' E 033°01'1 3.8
2017-Aug-16 10:30N 34°38' E 033°02'  
2017-Aug-11 13:04N 34°39' E 033°04'0 8.6
2017-Aug-11 13:00N 34°39' E 033°03'2 0.4
2017-Aug-11 07:39N 34°38' E 033°01'1 6.0
2017-Aug-11 07:30N 34°38' E 033°02'4 7.8
2017-Aug-11 07:00N 34°40' E 033°06'  
Track history (hours):
 
Tides and Currents Weather Stations Pressure Air Temp Water Temp Dewpoint Dewpoint Depression Visibility Wind Speed Wind Dir Waves Ship Positions

Lady Kimon

Owner: Pekhazis, Fadoul, Miami, FL. More information available from US FCC via Universal Licensing System and Coast Guard Vessel Documentation Center.

Last reported at 2017-Aug-19 13:28 UTC. Time now 2017-Sep-21 07:11 UTC.
Position N 34°40' E 033°04'.
Warning: this ship's position is 32 days out of date.

Length 17 m.

Type: Pleasure craft. MMSI: 367612190.

Date/timePositionNaut miles runAvg speedWind from/ knotsBaromVisibWave heightAir tempDewpointWater temp
2017-Aug-19 13:28N 34°40' E 033°04'4 7.6
2017-Aug-19 13:00N 34°38' E 033°01'0 0.0
2017-Aug-19 06:54N 34°38' E 033°01'3 7.1
2017-Aug-19 06:30N 34°39' E 033°04'1 0.0
2017-Aug-17 09:47N 34°40' E 033°04'2 8.9
2017-Aug-17 09:30N 34°38' E 033°02'1 0.6
2017-Aug-17 07:39N 34°38' E 033°01'1 5.1
2017-Aug-17 07:30N 34°38' E 033°02'4 7.9
2017-Aug-17 07:00N 34°40' E 033°06'0 0.0
2017-Aug-16 14:21N 34°40' E 033°05'3 8.1
2017-Aug-16 14:00N 34°39' E 033°03'2 0.6
2017-Aug-16 10:51N 34°38' E 033°01'1 3.8
2017-Aug-16 10:30N 34°38' E 033°02'  
2017-Aug-11 13:04N 34°39' E 033°04'0 8.6
2017-Aug-11 13:00N 34°39' E 033°03'2 0.4
2017-Aug-11 07:39N 34°38' E 033°01'1 6.0
2017-Aug-11 07:30N 34°38' E 033°02'4 7.8
2017-Aug-11 07:00N 34°40' E 033°06'  

Dump ship's entire track history